createdAt,value
2022-12-03T00:00:21.198Z,75.83594
2022-12-03T00:02:21.465Z,75.09668
2022-12-03T00:04:21.159Z,74.59961
2022-12-03T00:06:21.273Z,75.60645
2022-12-03T00:08:21.365Z,75.52637
2022-12-03T00:09:36.118Z,75.00195
2022-12-03T00:11:36.109Z,74.46582
2022-12-03T00:13:35.870Z,74.7627
2022-12-03T00:15:36.020Z,74.11426
2022-12-03T00:17:35.892Z,74.68164
2022-12-03T00:19:35.834Z,75.02734
2022-12-03T00:21:35.945Z,75.63281
2022-12-03T00:25:16.656Z,74.70898
2022-12-03T00:27:16.670Z,75.35156
2022-12-03T00:29:16.647Z,74.54492
2022-12-03T00:31:16.891Z,74.4834
2022-12-03T00:33:16.714Z,74.75586
2022-12-03T00:35:16.857Z,74.61133
2022-12-03T00:37:16.755Z,74.46777
2022-12-03T00:40:17.847Z,74.0332
2022-12-03T00:42:17.703Z,73.90527
2022-12-03T00:44:17.782Z,74.79883
2022-12-03T00:46:21.914Z,74.55664
2022-12-03T00:48:17.696Z,74.43262
2022-12-03T00:50:17.561Z,74.50879
2022-12-03T00:52:17.542Z,74.04395
2022-12-03T00:55:53.890Z,75.04102
2022-12-03T00:57:53.872Z,74.67676
2022-12-03T00:59:53.751Z,74.69531
2022-12-03T01:01:53.851Z,74.22949
2022-12-03T01:03:53.803Z,74.05176
2022-12-03T01:05:53.926Z,74.12695
2022-12-03T01:07:53.800Z,73.57227
2022-12-03T01:10:51.286Z,74.60938
2022-12-03T01:12:51.357Z,75.17871
2022-12-03T01:14:51.815Z,75.10938
2022-12-03T01:16:51.331Z,74.52832
2022-12-03T01:18:51.358Z,74.61816
2022-12-03T01:20:51.296Z,75.25684
2022-12-03T01:22:51.449Z,75.81836
2022-12-03T01:25:55.584Z,77.00391
2022-12-03T01:27:55.607Z,79.10059
2022-12-03T01:29:55.554Z,79.49902
2022-12-03T01:31:55.570Z,79.37402
2022-12-03T01:33:55.640Z,79.08398
2022-12-03T01:35:55.642Z,78.96582
2022-12-03T01:37:55.663Z,79.09375
2022-12-03T01:40:38.290Z,78.70801
2022-12-03T01:42:38.370Z,78.4209
2022-12-03T01:44:38.242Z,78.25391
2022-12-03T01:46:38.361Z,78.20117
2022-12-03T01:48:38.214Z,78.20996
2022-12-03T01:50:38.238Z,77.72266
2022-12-03T01:52:38.217Z,77.13965
2022-12-03T01:56:08.283Z,76.4043
2022-12-03T01:58:08.238Z,76.72168
2022-12-03T02:00:08.328Z,76.94043
2022-12-03T02:02:08.565Z,77.10156
2022-12-03T02:04:08.355Z,77.36426
2022-12-03T02:06:08.249Z,77.4668
2022-12-03T02:08:08.329Z,77.41602
2022-12-03T02:11:26.060Z,77.12988
2022-12-03T02:13:26.004Z,77.38867
2022-12-03T02:15:25.996Z,77.4541
2022-12-03T02:17:26.024Z,77.26367
2022-12-03T02:19:25.993Z,77.59961
2022-12-03T02:21:25.960Z,77.11035
2022-12-03T02:23:25.985Z,77.25879
2022-12-03T02:26:44.427Z,77.13086
2022-12-03T02:28:44.380Z,77.17871
2022-12-03T02:30:44.465Z,77.46094
2022-12-03T02:32:44.344Z,76.94531
2022-12-03T02:34:44.380Z,76.79785
2022-12-03T02:36:44.340Z,77.04004
2022-12-03T02:38:44.355Z,76.95703
2022-12-03T02:41:08.805Z,77.08887
2022-12-03T02:43:08.844Z,77.45215
2022-12-03T02:45:08.773Z,77.64063
2022-12-03T02:47:08.970Z,77.72168
2022-12-03T02:49:08.818Z,78.25195
2022-12-03T02:51:08.802Z,78.32324
2022-12-03T02:53:08.808Z,78.3916
2022-12-03T02:55:08.762Z,78.34082
2022-12-03T02:56:38.051Z,78.37109
2022-12-03T02:58:38.181Z,77.28809
2022-12-03T03:00:38.267Z,77.71973
2022-12-03T03:02:38.372Z,77.96484
2022-12-03T03:04:38.159Z,78.01758
2022-12-03T03:06:38.191Z,79.26465
2022-12-03T03:08:38.156Z,80.29004
2022-12-03T03:12:14.428Z,79.82129
2022-12-03T03:14:14.435Z,80.55469
2022-12-03T03:16:14.495Z,82.03711
2022-12-03T03:18:14.432Z,81.47754
2022-12-03T03:20:14.460Z,81.05762
2022-12-03T03:22:14.430Z,80.79883
2022-12-03T03:24:14.398Z,80.76465
2022-12-03T03:26:35.773Z,80.03027
2022-12-03T03:28:35.774Z,79.71875
2022-12-03T03:30:35.769Z,80.43262
2022-12-03T03:32:35.948Z,80.09375
2022-12-03T03:34:35.743Z,79.7207
2022-12-03T03:36:35.697Z,78.95313
2022-12-03T03:38:35.922Z,78.29785
2022-12-03T03:40:36.013Z,77.11133
2022-12-03T03:42:14.536Z,77.49805
2022-12-03T03:44:14.549Z,77.85449
2022-12-03T03:46:14.699Z,78.60938
2022-12-03T03:48:14.381Z,80.27441
2022-12-03T03:50:14.374Z,79.89746
2022-12-03T03:52:14.360Z,80.0918
2022-12-03T03:54:14.428Z,80.20801
2022-12-03T03:57:24.913Z,79.41992
2022-12-03T03:59:24.970Z,79.35645
2022-12-03T04:01:25.215Z,78.63867
2022-12-03T04:03:25.007Z,78.87207
2022-12-03T04:05:24.959Z,78.7207
2022-12-03T04:07:25.035Z,78.57813
2022-12-03T04:09:24.926Z,78.07715
2022-12-03T04:12:51.576Z,78.10938
2022-12-03T04:14:52.526Z,78.34082
2022-12-03T04:16:51.541Z,77.1875
2022-12-03T04:18:51.436Z,76.93555
2022-12-03T04:20:51.459Z,76.67188
2022-12-03T04:22:51.440Z,76.35645
2022-12-03T04:24:52.089Z,76.6748
2022-12-03T04:27:32.852Z,77.10352
2022-12-03T04:29:32.759Z,76.46973
2022-12-03T04:31:32.680Z,76.00879
2022-12-03T04:33:32.705Z,75.27148
2022-12-03T04:35:32.782Z,75.34961
2022-12-03T04:37:32.743Z,75.29004
2022-12-03T04:39:32.709Z,74.99707
2022-12-03T04:42:54.905Z,75.41211
2022-12-03T04:44:55.464Z,75.75
2022-12-03T04:46:54.889Z,75.29492
2022-12-03T04:48:54.930Z,75.34668
2022-12-03T04:50:54.860Z,75.3291
2022-12-03T04:52:54.958Z,75.33789
2022-12-03T04:54:55.591Z,75.01367
2022-12-03T04:58:24.274Z,75.11914
2022-12-03T05:00:24.125Z,75.51758
2022-12-03T05:02:24.267Z,75.85645
2022-12-03T05:04:24.383Z,76.24316
2022-12-03T05:06:24.025Z,76.84277
2022-12-03T05:08:24.038Z,77.60059
2022-12-03T05:10:24.050Z,77.51367
2022-12-03T05:13:27.127Z,76.01074
2022-12-03T05:15:27.052Z,75.86816
2022-12-03T05:17:27.078Z,76.1582
2022-12-03T05:19:27.077Z,76.11133
2022-12-03T05:21:27.103Z,75.68066
2022-12-03T05:23:27.072Z,75.41309
2022-12-03T05:25:27.121Z,75.50586
2022-12-03T05:28:21.425Z,74.90332
2022-12-03T05:30:21.440Z,74.93262
2022-12-03T05:32:21.361Z,74.78516
2022-12-03T05:34:21.418Z,75.125
2022-12-03T05:36:21.376Z,75.15332
2022-12-03T05:38:21.595Z,75.75391
2022-12-03T05:40:21.346Z,76.08105
2022-12-03T05:43:37.175Z,76.56738
2022-12-03T05:45:37.198Z,76.61328
2022-12-03T05:47:37.532Z,76.46289
2022-12-03T05:49:37.378Z,76.79785
2022-12-03T05:51:37.466Z,77.20703
2022-12-03T05:53:37.276Z,77.56836
2022-12-03T05:55:37.556Z,77.72949
2022-12-03T05:58:43.518Z,77.96973
2022-12-03T06:00:43.525Z,77.63086
2022-12-03T06:02:43.848Z,77.69043
2022-12-03T06:04:43.524Z,77.71289
2022-12-03T06:06:44.081Z,77.7334
2022-12-03T06:08:43.566Z,77.70605
2022-12-03T06:10:43.546Z,77.70313
2022-12-03T06:13:29.994Z,78.06055
2022-12-03T06:15:30.227Z,77.7832
2022-12-03T06:17:30.042Z,78.06152
2022-12-03T06:19:30.029Z,78.30664
2022-12-03T06:21:30.057Z,78.44629
2022-12-03T06:23:29.999Z,78.60059
2022-12-03T06:25:30.052Z,78.83984
2022-12-03T06:29:14.496Z,79.27441
2022-12-03T06:31:14.509Z,79.18457
2022-12-03T06:33:14.378Z,78.96875
2022-12-03T06:35:14.452Z,78.96191
2022-12-03T06:37:14.436Z,78.6748
2022-12-03T06:39:14.380Z,78.82715
2022-12-03T06:41:14.416Z,78.61816
2022-12-03T06:43:59.817Z,78.55566
2022-12-03T06:45:59.928Z,78.53711
2022-12-03T06:48:00.067Z,78.16016
2022-12-03T06:59:09.875Z,77.8457
2022-12-03T07:01:10.033Z,77.9082
2022-12-03T07:03:09.989Z,77.83594
2022-12-03T07:05:09.862Z,78.11621
2022-12-03T07:07:09.980Z,77.8584
2022-12-03T07:09:10.062Z,77.94336
2022-12-03T07:11:09.996Z,78.15039
2022-12-03T07:14:42.319Z,77.70508
2022-12-03T07:16:42.524Z,77.66699
2022-12-03T07:18:42.578Z,77.5791
2022-12-03T07:20:42.275Z,77.6748
2022-12-03T07:22:42.397Z,77.86914
2022-12-03T07:24:42.254Z,77.83594
2022-12-03T07:26:42.376Z,77.82422
2022-12-03T07:30:06.445Z,77.65918
2022-12-03T07:32:06.525Z,77.32813
2022-12-03T07:34:06.435Z,77.36914
2022-12-03T07:36:06.836Z,77.08691
2022-12-03T07:38:06.213Z,77.60645
2022-12-03T07:40:06.207Z,77.62402
2022-12-03T07:42:06.221Z,77.88086
2022-12-03T07:44:21.711Z,78.03027
2022-12-03T07:46:21.831Z,77.89648
2022-12-03T07:48:21.807Z,78.20215
2022-12-03T07:50:21.805Z,77.9082
2022-12-03T07:52:21.752Z,78.03613
2022-12-03T07:54:21.755Z,77.6709
2022-12-03T07:56:21.702Z,77.77832
2022-12-03T07:58:21.690Z,78.38965
2022-12-03T08:00:14.548Z,78.06934
2022-12-03T08:02:22.019Z,77.7373
2022-12-03T08:04:14.586Z,78.1748
2022-12-03T08:06:14.498Z,78.1377
2022-12-03T08:08:14.703Z,78.29297
2022-12-03T08:10:14.525Z,78.27441
2022-12-03T08:12:14.534Z,78.25488
2022-12-03T08:14:39.868Z,78.56445
2022-12-03T08:16:39.967Z,78.33594
2022-12-03T08:18:39.890Z,78.04688
2022-12-03T08:20:39.855Z,77.70215
2022-12-03T08:22:39.948Z,77.69727
2022-12-03T08:24:39.932Z,77.50977
2022-12-03T08:26:39.800Z,78.17188
2022-12-03T08:28:39.836Z,78.52539
2022-12-03T08:29:46.872Z,77.94238
2022-12-03T08:31:46.988Z,77.80078
2022-12-03T08:33:46.954Z,77.50098
2022-12-03T08:35:46.888Z,78.00781
2022-12-03T08:37:46.900Z,78.01074
2022-12-03T08:39:46.948Z,79.21387
2022-12-03T08:41:46.904Z,79.31934
2022-12-03T08:43:46.915Z,79.05957
2022-12-03T08:45:38.400Z,78.4541
2022-12-03T08:47:38.256Z,78.31738
2022-12-03T08:49:38.387Z,78.34961
2022-12-03T08:51:38.349Z,77.91406
2022-12-03T08:53:38.300Z,77.28906
2022-12-03T08:55:38.452Z,76.6543
2022-12-03T08:57:38.220Z,77.28223
2022-12-03T09:00:44.735Z,77.90332
2022-12-03T09:02:44.564Z,78.61035
2022-12-03T09:04:44.653Z,78.62695
2022-12-03T09:06:44.645Z,78.58398
2022-12-03T09:08:44.584Z,78.76758
2022-12-03T09:10:44.532Z,78.66113
2022-12-03T09:12:44.579Z,78.65234
2022-12-03T09:16:06.280Z,78.7998
2022-12-03T09:18:06.191Z,78.47266
2022-12-03T09:20:06.146Z,78.08398
2022-12-03T09:22:06.198Z,77.96094
2022-12-03T09:24:06.147Z,77.58594
2022-12-03T09:26:06.186Z,77.93848
2022-12-03T09:28:06.669Z,77.84082
2022-12-03T09:30:39.052Z,77.70703
2022-12-03T09:32:39.064Z,77.27539
2022-12-03T09:34:38.914Z,77.21875
2022-12-03T09:36:39.062Z,77.13574
2022-12-03T09:38:48.036Z,77.37109
2022-12-03T09:40:38.890Z,77.52441
2022-12-03T09:42:38.956Z,77.87793
2022-12-03T09:46:08.643Z,77.11719
2022-12-03T09:48:08.472Z,76.84863
2022-12-03T09:50:08.467Z,76.24316
2022-12-03T09:52:08.687Z,75.88867
2022-12-03T09:54:08.513Z,75.97363
2022-12-03T09:56:08.486Z,74.97949
2022-12-03T09:58:08.456Z,75.03711
2022-12-03T10:01:04.499Z,75.67676
2022-12-03T10:03:04.344Z,75.0459
2022-12-03T10:05:04.463Z,75.34863
2022-12-03T10:07:04.424Z,77.13965
2022-12-03T10:09:04.308Z,76.93262
2022-12-03T10:11:04.462Z,76.58887
2022-12-03T10:13:04.410Z,76.09082
2022-12-03T10:16:44.783Z,76.4834
2022-12-03T10:18:44.649Z,76.55566
2022-12-03T10:20:44.917Z,76.70508
2022-12-03T10:22:44.654Z,75.91895
2022-12-03T10:24:44.658Z,76.06738
2022-12-03T10:26:44.769Z,75.25586
2022-12-03T10:28:44.715Z,76.01758
2022-12-03T10:31:56.104Z,75.70117
2022-12-03T10:33:56.089Z,74.87598
2022-12-03T10:35:56.038Z,75.16797
2022-12-03T10:37:56.063Z,74.76172
2022-12-03T10:39:56.887Z,75.77539
2022-12-03T10:41:56.078Z,75.77734
2022-12-03T10:43:56.022Z,76.07813
2022-12-03T10:46:26.093Z,75.69824
2022-12-03T10:48:25.781Z,74.84766
2022-12-03T10:50:25.722Z,75.67188
2022-12-03T10:52:26.474Z,75.80859
2022-12-03T10:54:25.783Z,77.16406
2022-12-03T10:56:25.733Z,76.71387
2022-12-03T10:58:25.829Z,77.01367
2022-12-03T11:01:32.550Z,76.11816
2022-12-03T11:03:32.667Z,76.48145
2022-12-03T11:05:32.338Z,77.2168
2022-12-03T11:07:32.770Z,75.88281
2022-12-03T11:09:32.503Z,75.88379
2022-12-03T11:11:32.567Z,75.89453
2022-12-03T11:13:32.317Z,76.36816
2022-12-03T11:15:32.549Z,76.08301
2022-12-03T11:17:17.074Z,76.43164
2022-12-03T11:19:17.062Z,75.83984
2022-12-03T11:21:16.709Z,75.74219
2022-12-03T11:23:16.678Z,76.13672
2022-12-03T11:25:16.655Z,75.94141
2022-12-03T11:27:16.907Z,75.89941
2022-12-03T11:29:16.805Z,76.71973
2022-12-03T11:32:38.361Z,76.69043
2022-12-03T11:34:38.123Z,76.92383
2022-12-03T11:38:38.185Z,75.4707
2022-12-03T11:40:40.058Z,74.90137
2022-12-03T11:42:38.553Z,74.90527
2022-12-03T11:44:38.371Z,75.22949
2022-12-03T11:47:12.105Z,75.73047
2022-12-03T11:49:12.040Z,76.15137
2022-12-03T11:51:12.260Z,75.37012
2022-12-03T11:53:12.149Z,74.1875
2022-12-03T11:55:12.204Z,74.39746
2022-12-03T11:57:12.315Z,73.98633
2022-12-03T11:59:12.171Z,74.07422
2022-12-03T12:02:51.088Z,74.10645
2022-12-03T12:04:50.902Z,73.99805
2022-12-03T12:06:53.790Z,73.53809
2022-12-03T12:08:51.149Z,73.72461
2022-12-03T12:10:50.886Z,74.0957
2022-12-03T12:12:55.492Z,74.34668
2022-12-03T12:14:51.084Z,74.11426
2022-12-03T12:17:24.026Z,74.25488
2022-12-03T12:19:23.999Z,74.22461
2022-12-03T12:21:23.988Z,74.46094
2022-12-03T12:23:23.879Z,73.95703
2022-12-03T12:25:23.977Z,72.78125
2022-12-03T12:27:24.017Z,72.74414
2022-12-03T12:29:24.002Z,73.30566
2022-12-03T12:32:45.870Z,74.1377
2022-12-03T12:34:46.103Z,73.44727
2022-12-03T12:36:46.125Z,74.06543
2022-12-03T12:38:45.875Z,72.82813
2022-12-03T12:40:45.898Z,73.4082
2022-12-03T12:42:46.072Z,74.375
2022-12-03T12:44:46.021Z,72.78125
2022-12-03T12:47:47.376Z,72.5293
2022-12-03T12:49:52.151Z,72.9502
2022-12-03T12:51:47.434Z,72.59375
2022-12-03T12:53:47.127Z,71.56738
2022-12-03T12:55:47.257Z,72.92383
2022-12-03T12:57:47.187Z,74.34473
2022-12-03T12:59:47.107Z,74.30957
2022-12-03T13:03:20.681Z,74.46484
2022-12-03T13:05:20.789Z,73.5127
2022-12-03T13:07:21.088Z,72.91016
2022-12-03T13:09:20.617Z,73.10742
2022-12-03T13:11:20.731Z,72.36035
2022-12-03T13:13:20.665Z,72.76758
2022-12-03T13:15:20.807Z,72.16113
2022-12-03T13:17:56.371Z,72.51953
2022-12-03T13:20:08.025Z,72.45508
2022-12-03T13:21:56.334Z,73.13867
2022-12-03T13:23:56.463Z,73.2959
2022-12-03T13:26:18.651Z,73.04199
2022-12-03T13:27:56.352Z,72.59766
2022-12-03T13:29:57.131Z,72.67676
2022-12-03T13:31:56.437Z,72.70801
2022-12-03T13:33:01.309Z,72.40137
2022-12-03T13:35:01.343Z,71.78125
2022-12-03T13:37:01.417Z,71.71094
2022-12-03T13:39:01.334Z,71.85449
2022-12-03T13:41:01.377Z,72.67285
2022-12-03T13:43:01.349Z,73.81152
2022-12-03T13:45:01.306Z,73.49121
2022-12-03T13:47:01.292Z,72.99902
2022-12-03T13:48:15.947Z,72.44727
2022-12-03T13:50:16.155Z,72.9668
2022-12-03T13:52:16.190Z,72.95313
2022-12-03T13:54:16.460Z,72.66016
2022-12-03T13:56:16.107Z,73.00977
2022-12-03T13:58:15.971Z,72.84766
2022-12-03T14:00:15.998Z,72.87598
2022-12-03T14:02:16.195Z,72.83398
2022-12-03T14:03:36.176Z,72.2666
2022-12-03T14:05:36.165Z,72.89453
2022-12-03T14:07:36.319Z,72.70605
2022-12-03T14:09:36.170Z,72.21191
2022-12-03T14:11:36.298Z,72.35645
2022-12-03T14:13:36.152Z,71.88379
2022-12-03T14:15:36.125Z,71.76855
2022-12-03T14:18:57.307Z,71.55078
2022-12-03T14:20:57.367Z,71.72363
2022-12-03T14:22:59.950Z,72.04102
2022-12-03T14:24:57.462Z,72.53125
2022-12-03T14:26:57.341Z,72.19238
2022-12-03T14:28:57.341Z,72.47852
2022-12-03T14:30:57.386Z,72.5625
2022-12-03T14:34:32.773Z,73.27441
2022-12-03T14:36:32.716Z,73.22559
2022-12-03T14:38:32.761Z,72.87598
2022-12-03T14:40:32.564Z,73.50977
2022-12-03T14:42:32.784Z,74.25
2022-12-03T14:44:32.722Z,73.98633
2022-12-03T14:46:32.557Z,73.70508
2022-12-03T14:49:09.089Z,73.44434
2022-12-03T14:51:09.149Z,73.39258
2022-12-03T14:53:09.201Z,72.98926
2022-12-03T14:55:09.123Z,72.99707
2022-12-03T14:57:09.152Z,72.97363
2022-12-03T14:59:09.224Z,72.79395
2022-12-03T15:01:09.185Z,72.38281
2022-12-03T15:04:55.961Z,72.46777
2022-12-03T15:06:55.834Z,72.36816
2022-12-03T15:08:56.003Z,72.54395
2022-12-03T15:10:55.937Z,72.20117
2022-12-03T15:12:55.882Z,72.5918
2022-12-03T15:14:55.822Z,72.4502
2022-12-03T15:16:56.148Z,72.44238
2022-12-03T15:19:08.947Z,72.34961
2022-12-03T15:21:09.022Z,72.49121
2022-12-03T15:23:14.775Z,72.34766
2022-12-03T15:25:08.941Z,71.88086
2022-12-03T15:27:09.049Z,71.8418
2022-12-03T15:29:09.012Z,72.28906
2022-12-03T15:31:09.095Z,72.04883
2022-12-03T15:33:09.265Z,71.90332
2022-12-03T15:34:36.340Z,71.66699
2022-12-03T15:36:36.310Z,71.81738
2022-12-03T15:38:36.359Z,71.69922
2022-12-03T15:40:36.257Z,71.21875
2022-12-03T15:42:36.265Z,70.84668
2022-12-03T15:44:36.291Z,70.54297
2022-12-03T15:46:36.353Z,70.46191
2022-12-03T15:50:10.886Z,70.46973
2022-12-03T15:52:11.077Z,70.33496
2022-12-03T15:54:10.968Z,70.0332
2022-12-03T15:56:10.858Z,70.21777
2022-12-03T15:58:10.955Z,70.31055
2022-12-03T16:00:10.970Z,70.375
2022-12-03T16:02:11.342Z,70.47266
2022-12-03T16:05:29.169Z,70.86914
2022-12-03T16:07:29.263Z,71.08789
2022-12-03T16:09:29.180Z,70.81348
2022-12-03T16:11:29.134Z,70.6084
2022-12-03T16:13:29.131Z,70.39258
2022-12-03T16:15:29.277Z,70.46289
2022-12-03T16:17:29.162Z,70.14063
2022-12-03T16:20:09.185Z,70.10156
2022-12-03T16:22:09.095Z,70.06055
2022-12-03T16:24:08.959Z,70.2373
2022-12-03T16:26:09.002Z,70.07129
2022-12-03T16:28:08.879Z,70.38965
2022-12-03T16:30:09.114Z,70.4082
2022-12-03T16:32:09.113Z,70.30371
2022-12-03T16:35:08.065Z,70.43457
2022-12-03T16:37:08.083Z,70.44922
2022-12-03T16:39:08.101Z,70.29883
2022-12-03T16:41:08.272Z,70.37402
2022-12-03T16:43:08.322Z,70.24023
2022-12-03T16:45:08.449Z,70.1875
2022-12-03T16:47:08.777Z,70.33789
2022-12-03T16:50:51.080Z,70.7041
2022-12-03T16:52:50.893Z,70.41309
2022-12-03T16:54:51.012Z,71.22754
2022-12-03T16:56:50.918Z,71.01465
2022-12-03T16:58:50.816Z,70.9043
2022-12-03T17:00:50.874Z,71.20801
2022-12-03T17:02:51.212Z,71.13867
2022-12-03T17:05:48.909Z,70.85547
2022-12-03T17:07:48.929Z,71.06348
2022-12-03T17:09:48.952Z,71.07227
2022-12-03T17:11:48.887Z,71.23047
2022-12-03T17:13:48.831Z,71.98145
2022-12-03T17:15:49.019Z,71.55762
2022-12-03T17:17:49.061Z,71.32227
2022-12-03T17:21:16.190Z,72.08496
2022-12-03T17:23:16.093Z,71.82324
2022-12-03T17:25:16.171Z,71.22266
2022-12-03T17:27:16.111Z,71.68359
2022-12-03T17:29:15.936Z,71.73828
2022-12-03T17:31:16.321Z,71.36719
2022-12-03T17:33:16.047Z,71.43262
2022-12-03T17:36:12.682Z,71.56641
2022-12-03T17:38:12.504Z,71.38379
2022-12-03T17:40:12.515Z,71.6582
2022-12-03T17:42:12.330Z,72.41602
2022-12-03T17:44:20.906Z,72.50293
2022-12-03T17:46:12.520Z,72.12891
2022-12-03T17:48:12.601Z,72.05078
2022-12-03T17:51:15.160Z,72.23926
2022-12-03T17:53:14.658Z,72.67578
2022-12-03T17:55:31.205Z,72.1875
2022-12-03T17:57:14.589Z,72.0752
2022-12-03T17:59:14.911Z,71.73145
2022-12-03T18:01:15.135Z,71.625
2022-12-03T18:03:14.970Z,71.35156
2022-12-03T18:06:04.728Z,71.56543
2022-12-03T18:08:05.101Z,71.39941
2022-12-03T18:10:04.663Z,71.10059
2022-12-03T18:12:04.712Z,71.94824
2022-12-03T18:14:04.816Z,71.81641
2022-12-03T18:16:04.907Z,71.93164
2022-12-03T18:18:04.634Z,71.7207
2022-12-03T18:21:06.166Z,72.05469
2022-12-03T18:23:06.132Z,72.29004
2022-12-03T18:25:06.188Z,71.83691
2022-12-03T18:27:06.266Z,71.83691
2022-12-03T18:29:06.168Z,72.37207
2022-12-03T18:31:06.398Z,72.47461
2022-12-03T18:33:06.381Z,72.42676
2022-12-03T18:35:06.257Z,72.41016
2022-12-03T18:37:07.930Z,72.25293
2022-12-03T18:39:07.833Z,72.49707
2022-12-03T18:41:07.760Z,72.31641
2022-12-03T18:43:07.896Z,72.38281
2022-12-03T18:45:08.380Z,72.33984
2022-12-03T18:47:07.888Z,72.25098
2022-12-03T18:49:07.996Z,72.14746
2022-12-03T18:52:02.899Z,72.01563
2022-12-03T18:54:03.027Z,72.3877
2022-12-03T18:56:03.095Z,72.37402
2022-12-03T18:58:03.134Z,72.06641
2022-12-03T19:00:02.979Z,72.55859
2022-12-03T19:02:03.140Z,72.75781
2022-12-03T19:04:02.952Z,72.4209
2022-12-03T19:06:43.701Z,72.52051
2022-12-03T19:08:43.711Z,72.61523
2022-12-03T19:10:43.659Z,73.2002
2022-12-03T19:12:43.987Z,73.24121
2022-12-03T19:14:43.835Z,72.61035
2022-12-03T19:16:43.975Z,73.03613
2022-12-03T19:18:43.830Z,72.72754
2022-12-03T19:22:24.403Z,73.0166
2022-12-03T19:24:26.179Z,73.37598
2022-12-03T19:26:25.608Z,73.61426
2022-12-03T19:28:24.231Z,73.35059
2022-12-03T19:30:24.425Z,72.9082
2022-12-03T19:32:24.297Z,73.30762
2022-12-03T19:34:24.596Z,73.47363
2022-12-03T19:37:18.235Z,72.84375
2022-12-03T19:39:18.139Z,72.59473
2022-12-03T19:41:18.214Z,72.70703
2022-12-03T19:43:18.330Z,73.14355
2022-12-03T19:45:18.001Z,72.99902
2022-12-03T19:47:17.930Z,73.08008
2022-12-03T19:49:18.334Z,72.68359
2022-12-03T19:52:45.651Z,73.19824
2022-12-03T19:54:45.737Z,72.62109
2022-12-03T19:56:45.902Z,73.09473
2022-12-03T19:58:45.815Z,73.47168
2022-12-03T20:00:45.709Z,73.19922
2022-12-03T20:02:45.660Z,73.17285
2022-12-03T20:04:45.624Z,73.00879
2022-12-03T20:07:36.921Z,73.23047
2022-12-03T20:09:36.938Z,72.89551
2022-12-03T20:11:36.885Z,72.98145
2022-12-03T20:13:36.986Z,73.50488
2022-12-03T20:15:36.979Z,73.62402
2022-12-03T20:17:36.827Z,73.26953
2022-12-03T20:19:37.009Z,74.00684
2022-12-03T20:23:16.949Z,73.75
2022-12-03T20:25:16.608Z,74.6582
2022-12-03T20:27:23.251Z,74.52051
2022-12-03T20:29:16.832Z,74.52051
2022-12-03T20:31:17.102Z,74.02344
2022-12-03T20:33:16.802Z,73.89844
2022-12-03T20:35:16.919Z,74.52148
2022-12-03T20:38:28.295Z,74.02734
2022-12-03T20:40:28.505Z,74.44824
2022-12-03T20:42:28.227Z,74.9668
2022-12-03T20:44:28.288Z,74.8877
2022-12-03T20:46:28.259Z,74.32422
2022-12-03T20:48:28.256Z,74.12598
2022-12-03T20:50:28.399Z,73.81738
2022-12-03T20:53:28.437Z,73.3916
2022-12-03T20:55:03.280Z,73.41406
2022-12-03T20:57:03.141Z,73.60547
2022-12-03T20:59:03.202Z,73.90723
2022-12-03T21:01:03.565Z,73.75879
2022-12-03T21:03:03.745Z,73.94824
2022-12-03T21:05:03.583Z,73.96777
2022-12-03T21:07:58.287Z,74.72754
2022-12-03T21:09:58.481Z,74.36621
2022-12-03T21:11:58.067Z,74.32324
2022-12-03T21:13:58.094Z,74.50684
2022-12-03T21:15:58.202Z,74.72852
2022-12-03T21:17:58.321Z,74.0957
2022-12-03T21:19:58.208Z,74.4834
2022-12-03T21:23:55.081Z,74.82715
2022-12-03T21:25:55.469Z,74.73438
2022-12-03T21:27:54.944Z,74.52734
2022-12-03T21:29:55.576Z,74.27637
2022-12-03T21:31:54.925Z,74.67188
2022-12-03T21:33:54.951Z,74.38574
2022-12-03T21:35:55.295Z,74.74414
2022-12-03T21:38:57.332Z,74.70605
2022-12-03T21:40:57.309Z,74.99805
2022-12-03T21:42:57.291Z,74.74219
2022-12-03T21:44:57.332Z,75.06348
2022-12-03T21:47:08.578Z,75.42578
2022-12-03T21:48:57.267Z,75.48926
2022-12-03T21:50:57.281Z,75.67188
2022-12-03T21:54:06.725Z,75.97949
2022-12-03T21:56:06.615Z,75.49414
2022-12-03T21:58:06.635Z,75.50488
2022-12-03T22:00:06.754Z,75.27051
2022-12-03T22:02:07.181Z,75.69238
2022-12-03T22:04:06.989Z,75.33984
2022-12-03T22:06:06.612Z,75.53613
2022-12-03T22:09:20.526Z,75.95508
2022-12-03T22:11:16.597Z,75.67773
2022-12-03T22:13:16.624Z,75.9873
2022-12-03T22:15:19.735Z,75.55469
2022-12-03T22:17:16.599Z,75.33594
2022-12-03T22:19:16.912Z,75.83105
2022-12-03T22:21:16.697Z,75.66113
2022-12-03T22:23:56.713Z,75.79004
2022-12-03T22:25:56.756Z,75.7334
2022-12-03T22:27:57.004Z,75.44434
2022-12-03T22:29:57.431Z,76.16309
2022-12-03T22:31:56.829Z,76.25879
2022-12-03T22:33:56.813Z,75.9375
2022-12-03T22:35:56.892Z,75.99414
2022-12-03T22:39:47.382Z,75.6084
2022-12-03T22:41:47.295Z,75.19434
2022-12-03T22:43:47.419Z,75.70703
2022-12-03T22:45:47.660Z,75.87695
2022-12-03T22:47:47.983Z,75.80762
2022-12-03T22:49:47.633Z,75.36035
2022-12-03T22:51:47.366Z,75.73242
2022-12-03T22:54:03.069Z,75.35254
2022-12-03T22:56:03.385Z,75.20801
2022-12-03T22:58:03.213Z,75.63086
2022-12-03T23:00:03.347Z,75.43945
2022-12-03T23:02:03.047Z,75.16992
2022-12-03T23:04:03.681Z,75.4541
2022-12-03T23:06:03.539Z,76.44727
2022-12-03T23:08:03.816Z,76.6084
2022-12-03T23:09:37.093Z,75.7002
2022-12-03T23:11:37.179Z,76.16504
2022-12-03T23:13:36.823Z,75.91504
2022-12-03T23:15:37.163Z,75.43164
2022-12-03T23:17:36.893Z,75.42578
2022-12-03T23:19:36.978Z,76.20117
2022-12-03T23:21:36.984Z,76.48633
2022-12-03T23:24:45.276Z,77.36035
2022-12-03T23:26:45.525Z,76.80762
2022-12-03T23:28:45.332Z,76.02539
2022-12-03T23:30:45.555Z,75.72949
2022-12-03T23:32:45.556Z,75.42285
2022-12-03T23:34:45.282Z,75.10547
2022-12-03T23:36:45.109Z,75.1709
2022-12-03T23:39:35.375Z,74.50977
2022-12-03T23:41:35.401Z,75.00781
2022-12-03T23:43:35.517Z,75.61816
2022-12-03T23:45:35.319Z,75.96582
2022-12-03T23:47:35.712Z,76.07031
2022-12-03T23:49:35.566Z,75.39063
2022-12-03T23:51:35.681Z,75.02539
2022-12-03T23:53:35.837Z,75.93848
2022-12-03T23:55:15.709Z,75.70215
2022-12-03T23:57:15.802Z,75.07324
2022-12-03T23:59:15.825Z,75.70996
